Time;durP1;ratioP1;P1;durP2;ratioP2;P2;SDS_P1;SDS_P2;PMS_P1;PMS_P2;Temp;Humidity;BMP_temperature;BMP_pressure;BME280_temperature;BME280_humidity;BME280_pressure;Samples;Min_cycle;Max_cycle;Signal;HPM_P1;HPM_P2
2024/01/03 00:01:12;;;;;;;0.87;0.50;;;;;;;;;;4907074;29;20189;-85
2024/01/03 00:04:24;;;;;;;0.83;0.50;;;;;;;;;;4918141;29;20185;-84
2024/01/03 00:07:29;;;;;;;0.50;0.40;;;;;;;;;;4917732;29;20546;-84
2024/01/03 00:10:51;;;;;;;0.30;0.30;;;;;;;;;;4918936;29;20181;-84
2024/01/03 00:14:05;;;;;;;0.40;0.40;;;;;;;;;;4918542;29;20181;-84
2024/01/03 00:17:10;;;;;;;0.57;0.40;;;;;;;;;;4917376;29;20213;-83
2024/01/03 00:20:14;;;;;;;0.60;0.40;;;;;;;;;;4918389;29;20201;-83
2024/01/03 00:23:19;;;;;;;1.70;0.30;;;;;;;;;;4917669;29;20181;-84
2024/01/03 00:26:27;;;;;;;0.30;0.30;;;;;;;;;;4917488;29;20220;-83
2024/01/03 00:29:31;;;;;;;0.30;0.30;;;;;;;;;;4917152;29;20185;-84
2024/01/03 00:32:35;;;;;;;0.30;0.30;;;;;;;;;;4917299;29;20216;-84
2024/01/03 00:35:40;;;;;;;0.70;0.40;;;;;;;;;;4905857;29;20232;-83
2024/01/03 00:38:44;;;;;;;0.40;0.40;;;;;;;;;;4895795;29;20185;-84
2024/01/03 00:41:48;;;;;;;1.43;0.30;;;;;;;;;;4907082;29;20181;-83
2024/01/03 00:44:54;;;;;;;0.73;0.43;;;;;;;;;;4916818;29;20189;-83
2024/01/03 00:47:58;;;;;;;1.80;0.40;;;;;;;;;;4917539;29;20184;-83
2024/01/03 00:51:03;;;;;;;0.73;0.40;;;;;;;;;;4916959;29;20225;-84
2024/01/03 00:54:07;;;;;;;0.30;0.30;;;;;;;;;;4917645;29;20657;-83
2024/01/03 00:57:12;;;;;;;0.30;0.30;;;;;;;;;;4916447;29;20225;-83
2024/01/03 01:00:16;;;;;;;0.60;0.60;;;;;;;;;;4962290;28;20646;-83
2024/01/03 01:03:21;;;;;;;0.30;0.30;;;;;;;;;;4917701;29;20557;-83
2024/01/03 01:06:26;;;;;;;0.30;0.30;;;;;;;;;;4926953;29;20589;-83
2024/01/03 01:09:30;;;;;;;0.30;0.30;;;;;;;;;;4916089;29;20185;-83
2024/01/03 01:12:34;;;;;;;0.30;0.30;;;;;;;;;;4917074;29;20677;-83
2024/01/03 01:15:38;;;;;;;0.40;0.30;;;;;;;;;;4973733;28;20221;-84
2024/01/03 01:18:43;;;;;;;0.40;0.40;;;;;;;;;;4917713;29;20189;-84
2024/01/03 01:21:47;;;;;;;1.07;0.40;;;;;;;;;;4895566;29;20634;-84
2024/01/03 01:24:54;;;;;;;0.30;0.30;;;;;;;;;;4918122;29;20189;-83
2024/01/03 01:27:59;;;;;;;0.33;0.33;;;;;;;;;;4917739;29;20189;-83
2024/01/03 01:31:04;;;;;;;0.50;0.40;;;;;;;;;;4973657;28;20185;-84
2024/01/03 01:34:08;;;;;;;0.40;0.40;;;;;;;;;;4927268;29;20261;-83
2024/01/03 01:37:13;;;;;;;0.47;0.40;;;;;;;;;;4916406;29;20232;-83
2024/01/03 01:40:18;;;;;;;1.17;0.47;;;;;;;;;;4916508;29;20192;-83
2024/01/03 01:43:22;;;;;;;0.40;0.33;;;;;;;;;;4917612;29;20638;-85
2024/01/03 01:46:26;;;;;;;0.23;0.23;;;;;;;;;;4916112;29;20573;-84
2024/01/03 01:49:31;;;;;;;0.53;0.40;;;;;;;;;;4930267;29;20186;-85
2024/01/03 01:52:37;;;;;;;0.73;0.40;;;;;;;;;;4920331;29;20208;-85
2024/01/03 01:55:42;;;;;;;0.33;0.33;;;;;;;;;;4918349;29;20216;-83
2024/01/03 01:58:48;;;;;;;1.20;0.40;;;;;;;;;;4906456;29;20184;-84
2024/01/03 02:01:53;;;;;;;1.10;0.57;;;;;;;;;;4917726;29;20177;-83
2024/01/03 02:04:58;;;;;;;0.50;0.33;;;;;;;;;;4917073;29;20189;-85
2024/01/03 02:08:02;;;;;;;1.17;0.40;;;;;;;;;;4916616;29;20192;-83
2024/01/03 02:11:06;;;;;;;1.03;0.40;;;;;;;;;;4916026;29;20557;-83
2024/01/03 02:14:11;;;;;;;0.50;0.40;;;;;;;;;;4917761;29;20189;-82
2024/01/03 02:17:15;;;;;;;0.60;0.40;;;;;;;;;;4972822;28;20220;-83
2024/01/03 02:20:19;;;;;;;0.43;0.40;;;;;;;;;;4926327;29;20188;-83
2024/01/03 02:23:24;;;;;;;0.50;0.50;;;;;;;;;;4965077;28;20181;-83
2024/01/03 02:26:29;;;;;;;1.90;0.50;;;;;;;;;;4918768;29;20588;-84
2024/01/03 02:29:33;;;;;;;0.73;0.50;;;;;;;;;;4907350;29;20185;-83
2024/01/03 02:32:37;;;;;;;0.70;0.50;;;;;;;;;;4929888;29;20577;-83
2024/01/03 02:35:41;;;;;;;0.70;0.50;;;;;;;;;;4918735;29;20232;-83
2024/01/03 02:38:50;;;;;;;0.63;0.50;;;;;;;;;;4919380;29;20181;-83
2024/01/03 02:41:54;;;;;;;0.50;0.50;;;;;;;;;;4919511;29;20186;-83
2024/01/03 02:44:58;;;;;;;0.60;0.40;;;;;;;;;;4919769;29;20193;-83
2024/01/03 02:48:03;;;;;;;1.17;0.50;;;;;;;;;;4919489;29;20189;-83
2024/01/03 02:51:07;;;;;;;0.83;0.40;;;;;;;;;;4908001;29;20548;-83
2024/01/03 02:54:11;;;;;;;0.80;0.40;;;;;;;;;;4907898;29;20177;-83
2024/01/03 02:57:17;;;;;;;1.20;0.47;;;;;;;;;;4918449;29;20220;-83
2024/01/03 03:00:21;;;;;;;0.80;0.50;;;;;;;;;;4918190;29;20630;-83
2024/01/03 03:03:25;;;;;;;0.57;0.40;;;;;;;;;;4907259;29;20177;-82
2024/01/03 03:06:29;;;;;;;0.30;0.30;;;;;;;;;;4918842;29;20220;-83
2024/01/03 03:09:33;;;;;;;1.20;0.50;;;;;;;;;;4919252;29;20181;-83
2024/01/03 03:12:38;;;;;;;0.67;0.47;;;;;;;;;;4918146;29;20217;-83
2024/01/03 03:15:42;;;;;;;1.33;0.30;;;;;;;;;;4929097;29;20220;-85
2024/01/03 03:18:46;;;;;;;0.57;0.37;;;;;;;;;;4917964;29;20184;-86
2024/01/03 03:21:50;;;;;;;2.33;0.37;;;;;;;;;;4918674;29;20549;-83
2024/01/03 03:24:54;;;;;;;0.73;0.30;;;;;;;;;;4918979;29;20626;-83
2024/01/03 03:27:59;;;;;;;1.13;0.50;;;;;;;;;;4918698;29;20192;-83
2024/01/03 03:31:03;;;;;;;0.30;0.30;;;;;;;;;;4974992;28;20189;-82
2024/01/03 03:34:09;;;;;;;2.30;0.70;;;;;;;;;;4918127;29;20177;-83
2024/01/03 03:37:13;;;;;;;0.40;0.40;;;;;;;;;;4918677;29;20237;-83
2024/01/03 03:40:17;;;;;;;0.40;0.40;;;;;;;;;;4918415;29;20181;-83
2024/01/03 03:43:21;;;;;;;0.70;0.40;;;;;;;;;;4921670;29;20173;-85
2024/01/03 03:46:26;;;;;;;2.10;0.40;;;;;;;;;;4978803;28;20216;-85
2024/01/03 03:49:31;;;;;;;0.30;0.30;;;;;;;;;;4948114;29;20197;-85
2024/01/03 03:52:39;;;;;;;0.30;0.30;;;;;;;;;;4938390;29;20212;-84
2024/01/03 03:55:43;;;;;;;0.40;0.40;;;;;;;;;;4994459;28;20583;-82
2024/01/03 03:58:47;;;;;;;1.00;0.50;;;;;;;;;;4941870;29;20184;-83
2024/01/03 04:01:52;;;;;;;0.70;0.40;;;;;;;;;;4918801;29;20188;-84
2024/01/03 04:04:57;;;;;;;2.30;0.40;;;;;;;;;;4940905;29;20189;-82
2024/01/03 04:08:01;;;;;;;0.50;0.50;;;;;;;;;;4942515;29;20184;-82
2024/01/03 04:11:05;;;;;;;0.40;0.30;;;;;;;;;;4928895;29;20184;-85
2024/01/03 04:14:10;;;;;;;0.60;0.40;;;;;;;;;;4998155;28;20176;-85
2024/01/03 04:17:15;;;;;;;0.37;0.37;;;;;;;;;;4940551;29;20220;-82
2024/01/03 04:20:20;;;;;;;0.90;0.50;;;;;;;;;;5000761;28;20188;-85
2024/01/03 04:23:26;;;;;;;0.30;0.30;;;;;;;;;;4944471;29;20185;-85
2024/01/03 04:26:30;;;;;;;0.90;0.40;;;;;;;;;;4943748;29;20220;-84
2024/01/03 04:29:34;;;;;;;0.30;0.30;;;;;;;;;;5002189;28;20188;-83
2024/01/03 04:32:39;;;;;;;0.30;0.30;;;;;;;;;;4944708;29;20576;-84
2024/01/03 04:35:44;;;;;;;0.70;0.40;;;;;;;;;;4944168;29;20231;-83
2024/01/03 04:38:48;;;;;;;0.50;0.50;;;;;;;;;;4944370;29;20184;-84
2024/01/03 04:41:52;;;;;;;0.63;0.40;;;;;;;;;;4942963;29;20184;-83
2024/01/03 04:44:56;;;;;;;0.77;0.40;;;;;;;;;;4941780;29;20189;-84
2024/01/03 04:48:01;;;;;;;0.37;0.37;;;;;;;;;;4942889;29;20184;-83
2024/01/03 04:51:05;;;;;;;0.40;0.40;;;;;;;;;;4999416;28;20184;-84
2024/01/03 04:54:09;;;;;;;0.57;0.40;;;;;;;;;;4930738;29;20215;-83
2024/01/03 04:57:14;;;;;;;0.40;0.40;;;;;;;;;;4919647;29;20216;-83
2024/01/03 05:00:18;;;;;;;0.40;0.37;;;;;;;;;;4930653;29;20185;-83
2024/01/03 05:03:23;;;;;;;0.40;0.40;;;;;;;;;;4987482;28;20185;-84
2024/01/03 05:06:27;;;;;;;1.20;0.50;;;;;;;;;;4940931;29;20220;-84
2024/01/03 05:09:34;;;;;;;1.57;0.60;;;;;;;;;;4941667;29;20188;-84
2024/01/03 05:12:38;;;;;;;1.27;0.40;;;;;;;;;;4940275;29;20688;-84
2024/01/03 05:15:43;;;;;;;0.40;0.40;;;;;;;;;;4939855;29;20224;-83
2024/01/03 05:18:48;;;;;;;0.50;0.40;;;;;;;;;;4940047;29;20184;-84
2024/01/03 05:21:52;;;;;;;1.47;0.60;;;;;;;;;;4940067;29;20196;-84
2024/01/03 05:24:57;;;;;;;0.90;0.50;;;;;;;;;;4938967;29;20180;-83
2024/01/03 05:28:00;;;;;;;1.47;0.50;;;;;;;;;;4996230;28;20188;-84
2024/01/03 05:31:05;;;;;;;0.90;0.60;;;;;;;;;;4928120;29;20188;-83
2024/01/03 05:34:10;;;;;;;0.57;0.43;;;;;;;;;;4939163;29;20208;-84
2024/01/03 05:37:15;;;;;;;1.13;0.50;;;;;;;;;;4938408;29;20232;-84
2024/01/03 05:40:19;;;;;;;1.40;0.40;;;;;;;;;;4937922;29;20180;-84
2024/01/03 05:43:24;;;;;;;0.60;0.50;;;;;;;;;;4995249;28;20177;-83
2024/01/03 05:46:29;;;;;;;0.87;0.50;;;;;;;;;;4994959;28;20221;-83
2024/01/03 05:49:34;;;;;;;0.90;0.60;;;;;;;;;;4937941;29;20184;-84
2024/01/03 05:52:38;;;;;;;0.63;0.50;;;;;;;;;;4937270;29;20216;-84
2024/01/03 05:55:42;;;;;;;0.50;0.50;;;;;;;;;;4937296;29;20220;-83
2024/01/03 05:58:47;;;;;;;2.13;0.50;;;;;;;;;;4936993;29;20179;-83
2024/01/03 06:01:51;;;;;;;0.70;0.47;;;;;;;;;;4938478;29;20601;-83
2024/01/03 06:04:54;;;;;;;0.40;0.40;;;;;;;;;;4937475;29;20184;-83
2024/01/03 06:08:00;;;;;;;0.57;0.50;;;;;;;;;;4938995;29;20188;-84
2024/01/03 06:11:07;;;;;;;0.97;0.50;;;;;;;;;;4937644;29;20180;-84
2024/01/03 06:14:13;;;;;;;1.87;0.50;;;;;;;;;;4937873;29;20216;-85
2024/01/03 06:17:18;;;;;;;0.73;0.57;;;;;;;;;;4936919;29;20637;-85
2024/01/03 06:20:22;;;;;;;1.83;0.63;;;;;;;;;;4994622;28;20184;-84
2024/01/03 06:23:26;;;;;;;0.60;0.40;;;;;;;;;;4936707;29;20632;-83
2024/01/03 06:26:32;;;;;;;1.23;0.40;;;;;;;;;;4992931;28;20227;-84
2024/01/03 06:29:36;;;;;;;1.80;0.50;;;;;;;;;;4935751;29;20197;-84
2024/01/03 06:32:40;;;;;;;0.40;0.40;;;;;;;;;;4936291;29;20188;-83
2024/01/03 06:35:44;;;;;;;0.50;0.50;;;;;;;;;;4934900;29;20232;-83
2024/01/03 06:38:50;;;;;;;0.87;0.37;;;;;;;;;;4936377;29;20645;-83
2024/01/03 06:41:54;;;;;;;0.60;0.43;;;;;;;;;;4992854;28;20184;-83
2024/01/03 06:44:58;;;;;;;1.30;0.40;;;;;;;;;;4937120;29;20176;-83
2024/01/03 06:48:04;;;;;;;1.47;0.60;;;;;;;;;;4936757;29;20184;-83
2024/01/03 06:51:08;;;;;;;0.30;0.30;;;;;;;;;;4994035;28;20185;-83
2024/01/03 06:54:13;;;;;;;0.40;0.40;;;;;;;;;;4936874;29;20699;-83
2024/01/03 06:57:17;;;;;;;0.73;0.40;;;;;;;;;;4934893;29;20220;-83
2024/01/03 07:00:21;;;;;;;0.40;0.30;;;;;;;;;;4992602;28;20188;-83
2024/01/03 07:03:25;;;;;;;2.47;1.00;;;;;;;;;;4936603;29;20181;-82
2024/01/03 07:06:29;;;;;;;2.83;1.90;;;;;;;;;;4924298;29;20692;-83
2024/01/03 07:09:33;;;;;;;1.93;1.83;;;;;;;;;;4937569;29;20182;-84
2024/01/03 07:12:39;;;;;;;3.77;1.90;;;;;;;;;;4937949;29;20184;-84
2024/01/03 07:15:44;;;;;;;1.57;1.47;;;;;;;;;;4926933;29;20229;-84
2024/01/03 07:18:48;;;;;;;1.97;0.90;;;;;;;;;;4939166;29;20180;-83
2024/01/03 07:21:53;;;;;;;2.57;1.60;;;;;;;;;;4939337;29;20184;-83
2024/01/03 07:24:57;;;;;;;3.33;3.03;;;;;;;;;;4939632;29;20180;-84
2024/01/03 07:28:02;;;;;;;2.17;1.97;;;;;;;;;;4995473;28;20184;-83
2024/01/03 07:31:06;;;;;;;0.53;0.50;;;;;;;;;;4938000;29;20176;-84
2024/01/03 07:34:11;;;;;;;1.70;1.50;;;;;;;;;;4938792;29;20215;-83
2024/01/03 07:37:15;;;;;;;0.80;0.80;;;;;;;;;;4938664;29;20723;-83
2024/01/03 07:40:19;;;;;;;0.63;0.60;;;;;;;;;;4996130;28;20625;-84
2024/01/03 07:43:23;;;;;;;0.80;0.70;;;;;;;;;;4938077;29;20180;-83
2024/01/03 07:46:27;;;;;;;0.47;0.37;;;;;;;;;;4939522;29;20219;-83
2024/01/03 07:49:31;;;;;;;1.97;1.63;;;;;;;;;;4938820;29;20556;-85
2024/01/03 07:52:36;;;;;;;1.17;1.03;;;;;;;;;;4938820;29;20184;-83
2024/01/03 07:55:40;;;;;;;0.53;0.40;;;;;;;;;;4938938;29;20212;-84
2024/01/03 07:58:44;;;;;;;0.80;0.50;;;;;;;;;;4926573;29;20192;-84
2024/01/03 08:01:49;;;;;;;0.70;0.70;;;;;;;;;;4939204;29;20181;-85
2024/01/03 08:04:53;;;;;;;1.37;0.90;;;;;;;;;;4985074;28;20522;-83
2024/01/03 08:07:57;;;;;;;6.30;4.83;;;;;;;;;;4938150;29;20177;-84
2024/01/03 08:11:01;;;;;;;1.90;1.13;;;;;;;;;;4938029;29;20184;-85
2024/01/03 08:14:05;;;;;;;2.57;2.37;;;;;;;;;;4937969;29;20209;-85
2024/01/03 08:17:10;;;;;;;1.00;0.90;;;;;;;;;;4995756;28;20223;-85
2024/01/03 08:20:14;;;;;;;1.10;1.00;;;;;;;;;;4938841;29;20636;-85
2024/01/03 08:23:18;;;;;;;0.70;0.60;;;;;;;;;;4996226;28;20180;-85
2024/01/03 08:26:22;;;;;;;7.37;4.20;;;;;;;;;;4937945;29;20216;-85
2024/01/03 08:29:29;;;;;;;0.90;0.77;;;;;;;;;;4938826;29;20185;-85
2024/01/03 08:32:36;;;;;;;0.90;0.60;;;;;;;;;;4938412;29;20185;-84
2024/01/03 08:35:40;;;;;;;1.23;0.60;;;;;;;;;;4994876;28;20216;-86
2024/01/03 08:38:45;;;;;;;2.00;0.90;;;;;;;;;;4937965;29;20193;-85
2024/01/03 08:41:53;;;;;;;1.13;0.60;;;;;;;;;;4995213;28;20184;-84
2024/01/03 08:44:58;;;;;;;4.60;0.70;;;;;;;;;;4936996;29;20177;-82
2024/01/03 08:48:03;;;;;;;1.57;0.47;;;;;;;;;;4937660;29;20188;-84
2024/01/03 08:51:13;;;;;;;1.93;0.70;;;;;;;;;;4937717;29;20180;-82
2024/01/03 08:54:17;;;;;;;3.13;0.60;;;;;;;;;;4937306;29;20204;-83
2024/01/03 08:57:21;;;;;;;1.47;0.80;;;;;;;;;;4938011;29;20599;-82
2024/01/03 09:00:25;;;;;;;1.50;0.70;;;;;;;;;;4937247;29;20633;-83
2024/01/03 09:03:29;;;;;;;1.67;0.50;;;;;;;;;;4938389;29;20172;-83
2024/01/03 09:06:35;;;;;;;1.60;0.70;;;;;;;;;;4994567;28;20224;-82
2024/01/03 09:09:40;;;;;;;9.50;5.17;;;;;;;;;;4994541;28;20188;-83
2024/01/03 09:12:43;;;;;;;11.60;5.20;;;;;;;;;;4994422;28;20184;-84
2024/01/03 09:15:48;;;;;;;12.13;5.83;;;;;;;;;;4993753;28;20204;-84
2024/01/03 09:18:52;;;;;;;38.40;17.87;;;;;;;;;;4938028;29;20200;-83
2024/01/03 09:21:59;;;;;;;22.33;11.13;;;;;;;;;;4937647;29;20516;-83
2024/01/03 09:25:04;;;;;;;24.00;10.07;;;;;;;;;;4936866;29;20180;-83
2024/01/03 09:28:10;;;;;;;12.73;6.97;;;;;;;;;;4936656;29;20184;-83
2024/01/03 09:31:15;;;;;;;3.73;1.60;;;;;;;;;;4993560;28;20188;-83
2024/01/03 09:34:19;;;;;;;2.20;1.53;;;;;;;;;;4926552;29;20207;-84
2024/01/03 09:37:24;;;;;;;1.77;0.70;;;;;;;;;;4937195;29;20212;-83
2024/01/03 09:40:28;;;;;;;3.47;0.60;;;;;;;;;;4937981;29;20530;-84
2024/01/03 09:43:33;;;;;;;1.17;0.53;;;;;;;;;;4937823;29;20188;-84
2024/01/03 09:46:37;;;;;;;1.70;0.93;;;;;;;;;;4983289;28;20219;-83
2024/01/03 09:49:42;;;;;;;3.40;0.60;;;;;;;;;;4938735;29;20196;-84
2024/01/03 09:52:48;;;;;;;3.10;1.00;;;;;;;;;;4972914;28;20185;-83
2024/01/03 09:55:52;;;;;;;2.73;0.80;;;;;;;;;;4938264;29;20208;-83
2024/01/03 09:58:56;;;;;;;3.50;0.90;;;;;;;;;;4936100;29;20530;-83
2024/01/03 10:02:01;;;;;;;6.53;1.97;;;;;;;;;;4936649;29;20184;-83
2024/01/03 10:05:05;;;;;;;3.23;0.83;;;;;;;;;;4994731;28;20180;-83
2024/01/03 10:08:18;;;;;;;4.33;1.37;;;;;;;;;;4995158;28;20184;-84
2024/01/03 10:11:22;;;;;;;5.10;2.53;;;;;;;;;;4937462;29;20202;-83
2024/01/03 10:14:26;;;;;;;3.47;0.80;;;;;;;;;;4938628;29;20660;-83
2024/01/03 10:17:32;;;;;;;1.93;0.63;;;;;;;;;;4938424;29;20188;-81
2024/01/03 10:20:39;;;;;;;2.60;0.60;;;;;;;;;;4938371;29;20188;-85
2024/01/03 10:23:44;;;;;;;1.83;0.70;;;;;;;;;;4925925;29;20184;-83
2024/01/03 10:26:48;;;;;;;2.23;0.73;;;;;;;;;;4937004;29;20220;-86
2024/01/03 10:29:52;;;;;;;5.90;1.07;;;;;;;;;;4926499;29;20181;-85
2024/01/03 10:33:01;;;;;;;2.60;0.60;;;;;;;;;;4936089;29;20185;-86
2024/01/03 10:36:10;;;;;;;2.27;0.73;;;;;;;;;;4994413;28;20220;-86
2024/01/03 10:39:19;;;;;;;3.23;0.60;;;;;;;;;;4925818;29;20518;-87
2024/01/03 10:42:24;;;;;;;1.60;0.53;;;;;;;;;;4936650;29;20633;-85
2024/01/03 10:45:30;;;;;;;1.60;0.67;;;;;;;;;;4917464;29;20216;-88
2024/01/03 10:48:35;;;;;;;3.63;0.60;;;;;;;;;;4939180;29;20184;-84
2024/01/03 10:51:41;;;;;;;2.93;0.70;;;;;;;;;;4939590;29;20185;-84
2024/01/03 10:54:52;;;;;;;4.57;0.80;;;;;;;;;;4940329;29;20212;-85
2024/01/03 10:57:58;;;;;;;1.60;0.63;;;;;;;;;;4939386;29;20184;-85
2024/01/03 11:01:27;;;;;;;1.20;0.63;;;;;;;;;;4939763;29;20188;-85
2024/01/03 11:04:52;;;;;;;2.17;0.57;;;;;;;;;;4928266;29;20180;-85
2024/01/03 11:08:04;;;;;;;2.13;0.60;;;;;;;;;;4939174;29;20184;-86
2024/01/03 11:11:08;;;;;;;1.93;0.70;;;;;;;;;;4927654;29;20641;-85
2024/01/03 11:14:18;;;;;;;4.00;0.70;;;;;;;;;;4938930;29;20675;-85
2024/01/03 11:17:33;;;;;;;0.90;0.50;;;;;;;;;;4939597;29;20197;-85
2024/01/03 11:20:37;;;;;;;3.40;0.67;;;;;;;;;;4938097;29;20181;-86
2024/01/03 11:23:41;;;;;;;2.73;0.60;;;;;;;;;;4985365;28;20188;-86
2024/01/03 11:26:51;;;;;;;1.97;0.60;;;;;;;;;;4938208;29;20219;-86
2024/01/03 11:29:56;;;;;;;4.40;0.87;;;;;;;;;;4939045;29;20181;-85
2024/01/03 11:33:32;;;;;;;2.70;0.50;;;;;;;;;;4939289;29;20184;-86
2024/01/03 11:36:47;;;;;;;2.20;0.80;;;;;;;;;;4938478;29;20216;-85
2024/01/03 11:39:53;;;;;;;2.50;0.80;;;;;;;;;;4938794;29;20185;-86
2024/01/03 11:42:57;;;;;;;2.10;0.80;;;;;;;;;;4938950;29;20185;-85
2024/01/03 11:46:11;;;;;;;1.57;0.70;;;;;;;;;;4937766;29;20216;-84
2024/01/03 11:49:22;;;;;;;0.80;0.57;;;;;;;;;;4937674;29;20180;-85
2024/01/03 11:52:25;;;;;;;1.50;0.77;;;;;;;;;;4937919;29;20184;-85
2024/01/03 11:55:30;;;;;;;4.87;0.70;;;;;;;;;;4937297;29;20231;-85
2024/01/03 11:58:34;;;;;;;1.23;0.50;;;;;;;;;;4928494;29;20196;-85
2024/01/03 12:01:38;;;;;;;4.13;0.67;;;;;;;;;;4927879;29;20184;-85
2024/01/03 12:04:42;;;;;;;1.40;0.60;;;;;;;;;;4984569;28;20185;-86
2024/01/03 12:07:47;;;;;;;1.53;1.00;;;;;;;;;;4986627;28;20189;-86
2024/01/03 12:10:52;;;;;;;2.33;0.60;;;;;;;;;;4918896;29;20188;-85
2024/01/03 12:13:56;;;;;;;1.93;0.77;;;;;;;;;;4987381;28;20188;-86
2024/01/03 12:17:00;;;;;;;2.17;0.53;;;;;;;;;;4930201;29;20212;-85
2024/01/03 12:20:13;;;;;;;2.00;0.50;;;;;;;;;;4939762;29;20185;-86
2024/01/03 12:23:18;;;;;;;3.30;0.80;;;;;;;;;;4939051;29;20180;-86
2024/01/03 12:26:22;;;;;;;1.47;0.80;;;;;;;;;;4927313;29;20216;-86
2024/01/03 12:29:26;;;;;;;1.20;0.60;;;;;;;;;;4937558;29;20185;-86
2024/01/03 12:32:32;;;;;;;1.30;0.50;;;;;;;;;;4994260;28;20522;-86
2024/01/03 12:35:37;;;;;;;1.00;0.53;;;;;;;;;;4936095;29;20224;-84
2024/01/03 12:38:41;;;;;;;1.73;0.60;;;;;;;;;;4994102;28;20189;-85
2024/01/03 12:41:46;;;;;;;2.83;0.60;;;;;;;;;;4925839;29;20188;-87
2024/01/03 12:44:50;;;;;;;0.93;0.40;;;;;;;;;;4925922;29;20185;-86
2024/01/03 12:47:54;;;;;;;2.63;0.60;;;;;;;;;;4936176;29;20188;-86
2024/01/03 12:51:24;;;;;;;2.60;0.70;;;;;;;;;;4939254;29;20184;-87
2024/01/03 12:54:32;;;;;;;0.93;0.40;;;;;;;;;;4931426;29;20185;-87
2024/01/03 12:57:40;;;;;;;1.50;1.00;;;;;;;;;;4997954;28;20176;-86
2024/01/03 13:01:08;;;;;;;4.37;0.97;;;;;;;;;;4943419;29;20180;-84
2024/01/03 13:04:16;;;;;;;2.47;0.60;;;;;;;;;;4949527;29;20184;-86
2024/01/03 13:07:20;;;;;;;2.10;0.57;;;;;;;;;;4937185;29;20172;-86
2024/01/03 13:10:24;;;;;;;0.87;0.47;;;;;;;;;;4925971;29;20176;-85
2024/01/03 13:13:28;;;;;;;0.80;0.50;;;;;;;;;;4936978;29;20184;-86
2024/01/03 13:16:37;;;;;;;2.73;0.80;;;;;;;;;;4925895;29;20236;-87
2024/01/03 13:19:41;;;;;;;1.93;0.50;;;;;;;;;;4936980;29;20196;-87
2024/01/03 13:22:45;;;;;;;2.53;0.60;;;;;;;;;;4936372;29;20188;-86
2024/01/03 13:25:49;;;;;;;0.80;0.60;;;;;;;;;;4926243;29;20216;-86
2024/01/03 13:28:54;;;;;;;1.30;0.70;;;;;;;;;;4993832;28;20188;-86
2024/01/03 13:31:58;;;;;;;3.00;0.50;;;;;;;;;;4935893;29;20526;-86
2024/01/03 13:35:03;;;;;;;2.40;0.40;;;;;;;;;;4935359;29;20228;-86
2024/01/03 13:38:08;;;;;;;2.53;0.50;;;;;;;;;;4924370;29;20192;-86
2024/01/03 13:41:12;;;;;;;1.57;0.60;;;;;;;;;;4935576;29;20632;-88
2024/01/03 13:44:16;;;;;;;1.93;0.47;;;;;;;;;;4941773;29;20180;-85
2024/01/03 13:47:21;;;;;;;2.83;0.50;;;;;;;;;;4949642;29;20185;-85
2024/01/03 13:50:28;;;;;;;1.67;0.80;;;;;;;;;;4923987;29;20188;-85
2024/01/03 13:53:32;;;;;;;2.17;0.70;;;;;;;;;;4935746;29;20188;-85
2024/01/03 13:56:36;;;;;;;0.73;0.50;;;;;;;;;;4929351;29;20227;-82
2024/01/03 13:59:42;;;;;;;3.83;0.60;;;;;;;;;;4935888;29;20188;-85
2024/01/03 14:02:46;;;;;;;3.10;0.60;;;;;;;;;;4937223;29;20184;-83
2024/01/03 14:05:51;;;;;;;2.37;0.50;;;;;;;;;;4936510;29;20223;-84
2024/01/03 14:08:58;;;;;;;1.93;0.70;;;;;;;;;;4942525;29;20180;-86
2024/01/03 14:12:04;;;;;;;2.27;0.60;;;;;;;;;;4937349;29;20192;-85
2024/01/03 14:15:10;;;;;;;1.47;0.57;;;;;;;;;;4934958;29;20216;-88
2024/01/03 14:18:14;;;;;;;0.90;0.50;;;;;;;;;;4936914;29;20192;-86
2024/01/03 14:21:18;;;;;;;1.10;0.50;;;;;;;;;;4938896;29;20180;-86
2024/01/03 14:24:22;;;;;;;2.63;0.80;;;;;;;;;;4946249;29;20180;-83
2024/01/03 14:27:27;;;;;;;1.97;0.80;;;;;;;;;;4938749;29;20184;-83
2024/01/03 14:30:31;;;;;;;2.10;0.63;;;;;;;;;;4939192;29;20188;-83
2024/01/03 14:33:35;;;;;;;2.50;0.50;;;;;;;;;;4996341;28;20534;-88
2024/01/03 14:36:39;;;;;;;2.00;0.60;;;;;;;;;;4926616;29;20691;-85
2024/01/03 14:39:45;;;;;;;1.40;0.60;;;;;;;;;;4937816;29;20189;-88
2024/01/03 14:42:50;;;;;;;1.07;0.50;;;;;;;;;;4938272;29;20184;-87
2024/01/03 14:45:54;;;;;;;1.80;0.60;;;;;;;;;;4995400;28;20228;-85
2024/01/03 14:49:00;;;;;;;2.97;0.80;;;;;;;;;;4927304;29;20184;-85
2024/01/03 14:52:05;;;;;;;2.17;0.50;;;;;;;;;;4937423;29;20184;-85
2024/01/03 14:55:10;;;;;;;1.60;0.50;;;;;;;;;;4938391;29;20184;-88
2024/01/03 14:58:14;;;;;;;1.60;0.40;;;;;;;;;;4928374;29;20197;-88
2024/01/03 15:01:19;;;;;;;3.47;0.60;;;;;;;;;;4938417;29;20184;-87
2024/01/03 15:04:23;;;;;;;2.43;0.50;;;;;;;;;;4925802;29;20188;-85
2024/01/03 15:07:28;;;;;;;1.07;0.60;;;;;;;;;;4938759;29;20181;-88
2024/01/03 15:10:32;;;;;;;0.60;0.43;;;;;;;;;;4938423;29;20181;-87
2024/01/03 15:13:38;;;;;;;3.70;0.53;;;;;;;;;;4930230;29;20181;-86
2024/01/03 15:16:44;;;;;;;1.03;0.40;;;;;;;;;;4940852;29;20228;-88
2024/01/03 15:19:48;;;;;;;0.90;0.50;;;;;;;;;;4995859;28;20188;-81
2024/01/03 15:22:55;;;;;;;0.50;0.40;;;;;;;;;;4936960;29;20184;-87
2024/01/03 15:26:00;;;;;;;0.93;0.60;;;;;;;;;;4939296;29;20216;-81
2024/01/03 15:29:05;;;;;;;0.60;0.40;;;;;;;;;;4928823;29;20180;-84
2024/01/03 15:32:09;;;;;;;1.23;0.60;;;;;;;;;;4927214;29;20188;-87
2024/01/03 15:35:14;;;;;;;0.80;0.40;;;;;;;;;;4916336;29;20184;-87
2024/01/03 15:38:22;;;;;;;1.00;0.50;;;;;;;;;;4941887;29;20530;-82
2024/01/03 15:41:27;;;;;;;1.87;0.50;;;;;;;;;;4933543;29;20185;-82
2024/01/03 15:44:31;;;;;;;2.50;0.40;;;;;;;;;;4994405;28;20184;-83
2024/01/03 15:47:36;;;;;;;0.93;0.50;;;;;;;;;;4995982;28;20188;-82
2024/01/03 15:50:41;;;;;;;0.97;0.60;;;;;;;;;;4940033;29;20192;-86
2024/01/03 15:53:46;;;;;;;2.10;1.13;;;;;;;;;;4938761;29;20188;-84
2024/01/03 15:56:51;;;;;;;1.33;0.50;;;;;;;;;;4997129;28;20228;-85
2024/01/03 15:59:55;;;;;;;0.83;0.60;;;;;;;;;;4937564;29;20197;-86
2024/01/03 16:03:00;;;;;;;1.07;0.50;;;;;;;;;;4926190;29;20180;-86
2024/01/03 16:06:04;;;;;;;0.67;0.60;;;;;;;;;;4937402;29;20224;-84
2024/01/03 16:09:13;;;;;;;1.77;0.70;;;;;;;;;;4950969;29;20185;-83
2024/01/03 16:12:17;;;;;;;1.37;0.50;;;;;;;;;;4939246;29;20180;-85
2024/01/03 16:15:23;;;;;;;6.23;0.87;;;;;;;;;;4936687;29;20220;-83
2024/01/03 16:18:26;;;;;;;1.27;0.70;;;;;;;;;;4996681;28;20189;-83
2024/01/03 16:21:31;;;;;;;0.90;0.50;;;;;;;;;;4982692;28;20188;-86
2024/01/03 16:24:36;;;;;;;2.20;0.80;;;;;;;;;;4937438;29;20189;-84
2024/01/03 16:27:42;;;;;;;2.00;0.50;;;;;;;;;;4926968;29;20632;-84
2024/01/03 16:30:45;;;;;;;2.60;0.60;;;;;;;;;;4937836;29;20189;-85
2024/01/03 16:33:53;;;;;;;2.50;1.00;;;;;;;;;;4936262;29;20188;-84
2024/01/03 16:37:06;;;;;;;1.10;0.70;;;;;;;;;;4942815;29;20235;-83
2024/01/03 16:40:33;;;;;;;1.87;0.60;;;;;;;;;;4939199;29;20185;-82
2024/01/03 16:43:37;;;;;;;1.13;0.63;;;;;;;;;;4926626;29;20184;-83
2024/01/03 16:46:47;;;;;;;3.20;1.00;;;;;;;;;;4947787;29;20216;-83
2024/01/03 16:49:51;;;;;;;2.37;0.87;;;;;;;;;;4936531;29;20569;-83
2024/01/03 16:52:55;;;;;;;2.03;0.60;;;;;;;;;;4925361;29;20192;-83
2024/01/03 16:56:00;;;;;;;1.63;0.60;;;;;;;;;;4924715;29;20220;-83
2024/01/03 16:59:07;;;;;;;2.23;0.70;;;;;;;;;;4936106;29;20181;-82
2024/01/03 17:02:13;;;;;;;2.63;0.60;;;;;;;;;;4935758;29;20564;-84
2024/01/03 17:05:18;;;;;;;2.93;0.57;;;;;;;;;;4948422;29;20216;-84
2024/01/03 17:08:22;;;;;;;1.43;0.60;;;;;;;;;;4924829;29;20181;-83
2024/01/03 17:11:27;;;;;;;1.60;0.60;;;;;;;;;;4946785;29;20184;-83
2024/01/03 17:14:31;;;;;;;1.47;0.80;;;;;;;;;;4948688;29;20185;-83
2024/01/03 17:17:35;;;;;;;1.40;0.70;;;;;;;;;;4936297;29;20215;-83
2024/01/03 17:20:41;;;;;;;3.17;0.73;;;;;;;;;;4958142;29;20188;-83
2024/01/03 17:23:47;;;;;;;1.00;0.50;;;;;;;;;;4936184;29;20192;-83
2024/01/03 17:26:51;;;;;;;1.87;0.50;;;;;;;;;;4936784;29;20220;-83
2024/01/03 17:29:57;;;;;;;1.47;0.60;;;;;;;;;;4923224;29;20197;-83
2024/01/03 17:33:03;;;;;;;1.90;0.80;;;;;;;;;;4918662;29;20184;-83
2024/01/03 17:36:10;;;;;;;1.40;0.63;;;;;;;;;;4910036;29;20236;-83
2024/01/03 17:39:15;;;;;;;1.10;0.80;;;;;;;;;;4933952;29;20189;-82
2024/01/03 17:42:19;;;;;;;0.53;0.50;;;;;;;;;;4924755;29;20188;-82
2024/01/03 17:45:25;;;;;;;0.77;0.60;;;;;;;;;;4946203;28;20200;-85
2024/01/03 17:48:29;;;;;;;0.40;0.40;;;;;;;;;;4934926;29;20189;-84
2024/01/03 17:51:38;;;;;;;1.03;0.60;;;;;;;;;;4955422;29;20172;-84
2024/01/03 17:54:42;;;;;;;1.20;0.60;;;;;;;;;;4945681;29;20189;-84
2024/01/03 17:57:47;;;;;;;1.87;0.60;;;;;;;;;;4942537;29;20212;-84
2024/01/03 18:00:51;;;;;;;0.80;0.60;;;;;;;;;;4952329;29;20172;-84
2024/01/03 18:03:56;;;;;;;0.60;0.53;;;;;;;;;;4921379;29;20189;-84
2024/01/03 18:07:00;;;;;;;1.37;0.50;;;;;;;;;;4942262;29;20220;-83
2024/01/03 18:10:06;;;;;;;1.37;0.60;;;;;;;;;;4930903;29;20197;-83
2024/01/03 18:13:10;;;;;;;0.70;0.60;;;;;;;;;;4982165;28;20203;-83
2024/01/03 18:16:22;;;;;;;0.70;0.50;;;;;;;;;;4932743;29;20220;-84
2024/01/03 18:19:26;;;;;;;2.40;0.63;;;;;;;;;;4911097;29;20189;-84
2024/01/03 18:22:32;;;;;;;1.13;0.50;;;;;;;;;;4939998;29;20192;-84
2024/01/03 18:25:38;;;;;;;1.87;0.50;;;;;;;;;;4939729;29;20227;-83
2024/01/03 18:28:43;;;;;;;1.80;0.70;;;;;;;;;;4941555;29;20176;-82
2024/01/03 18:31:47;;;;;;;1.20;0.50;;;;;;;;;;4951108;29;20184;-82